createdAt,value
2018-09-18T03:00:33.386Z,14.30
2018-09-18T15:56:53.182Z,21.30
2018-09-18T15:59:23.923Z,21.10
2018-09-18T16:01:54.630Z,21.00
2018-09-18T16:04:25.522Z,20.90
2018-09-18T16:06:56.423Z,20.90
2018-09-18T16:13:02.587Z,21.00
2018-09-18T16:51:23.356Z,21.10
2018-09-18T16:53:54.501Z,21.10
2018-09-18T16:56:25.240Z,20.80
2018-09-18T16:58:56.911Z,20.70
2018-09-18T17:01:27.807Z,20.40
2018-09-18T17:03:58.659Z,20.20
2018-09-18T17:06:29.772Z,19.90
2018-09-18T17:09:00.755Z,19.70
2018-09-18T17:11:31.933Z,19.60
2018-09-18T17:14:02.799Z,19.60
2018-09-18T17:16:34.222Z,19.70
2018-09-18T17:19:05.597Z,19.80
2018-09-18T17:21:36.609Z,19.80
2018-09-18T17:24:07.731Z,19.90
2018-09-18T17:26:38.852Z,19.90
2018-09-18T17:29:09.610Z,19.90
2018-09-18T17:31:40.468Z,20.00
2018-09-18T17:34:11.260Z,20.00
2018-09-18T17:36:42.576Z,20.00
2018-09-18T17:39:13.634Z,20.00
2018-09-18T17:41:44.513Z,20.00
2018-09-18T17:44:15.389Z,19.90
2018-09-18T17:46:46.171Z,19.80
2018-09-18T17:49:16.944Z,19.80
2018-09-18T17:51:48.468Z,19.90
2018-09-18T17:54:19.531Z,19.90
2018-09-18T17:56:50.312Z,19.80
2018-09-18T17:59:21.356Z,19.80
2018-09-18T18:01:52.445Z,19.80
2018-09-18T18:04:23.296Z,19.70
2018-09-18T18:06:54.124Z,19.70
2018-09-18T18:09:25.110Z,19.60
2018-09-18T18:11:56.079Z,19.50
2018-09-18T18:14:26.856Z,19.40
2018-09-18T18:16:57.788Z,19.30
2018-09-18T18:19:28.892Z,19.30
2018-09-18T18:22:00.216Z,19.20
2018-09-18T18:24:31.231Z,19.20
2018-09-18T18:27:02.143Z,19.10
2018-09-18T18:29:33.254Z,19.10
2018-09-18T18:32:04.526Z,19.10
2018-09-18T18:34:35.498Z,19.00
2018-09-18T18:37:06.729Z,19.00
2018-09-18T18:39:37.701Z,18.90
2018-09-18T18:42:09.016Z,18.90
2018-09-18T18:44:40.151Z,18.80
2018-09-18T18:47:11.328Z,18.80
2018-09-18T18:49:42.703Z,18.70
2018-09-18T18:52:13.633Z,18.80
2018-09-18T18:54:44.982Z,18.70
2018-09-18T18:57:16.219Z,18.70
2018-09-18T18:59:47.336Z,18.70
2018-09-18T19:02:19.051Z,18.70
2018-09-18T19:04:50.533Z,18.60
2018-09-18T19:07:22.130Z,18.70
2018-09-18T19:09:54.007Z,18.70
2018-09-18T19:12:25.247Z,18.70
2018-09-18T19:14:56.489Z,18.70
2018-09-18T19:17:28.110Z,18.70
2018-09-18T19:19:59.427Z,18.70
2018-09-18T19:22:30.797Z,18.70
2018-09-18T19:25:02.313Z,18.60
2018-09-18T19:27:33.451Z,18.50
2018-09-18T19:30:05.836Z,18.50
2018-09-18T19:32:37.236Z,18.50
2018-09-18T19:35:09.019Z,18.60
2018-09-18T19:37:40.372Z,18.60
2018-09-18T19:40:12.890Z,18.50
2018-09-18T19:42:44.324Z,18.40
2018-09-18T19:45:15.286Z,18.30
2018-09-18T19:47:46.933Z,18.20
2018-09-18T19:50:18.818Z,18.00
2018-09-18T19:52:50.136Z,18.00
2018-09-18T19:55:21.242Z,17.90
2018-09-18T19:57:52.288Z,17.90
2018-09-18T20:00:23.359Z,17.90
2018-09-18T20:02:54.775Z,17.90
2018-09-18T20:05:26.293Z,17.90
2018-09-18T20:07:57.514Z,17.80
2018-09-18T20:10:28.887Z,17.70
2018-09-18T20:13:00.502Z,17.70
2018-09-18T20:15:31.489Z,17.70
2018-09-18T20:18:02.917Z,17.80
2018-09-18T20:20:36.251Z,17.90
2018-09-18T20:23:08.082Z,17.80
2018-09-18T20:25:39.197Z,17.80
2018-09-18T20:28:10.332Z,17.90
2018-09-18T20:30:41.971Z,17.90
2018-09-18T20:33:13.516Z,17.70
2018-09-18T20:35:44.652Z,17.70
2018-09-18T20:38:16.730Z,17.50
2018-09-18T20:40:47.881Z,17.50
2018-09-18T20:43:19.477Z,17.40
2018-09-18T20:45:51.001Z,17.30
2018-09-18T20:48:23.297Z,17.20
2018-09-18T20:50:55.017Z,17.10
2018-09-18T20:53:26.648Z,17.00
2018-09-18T20:55:59.106Z,16.90
2018-09-18T20:58:30.363Z,16.90
2018-09-18T21:01:01.965Z,16.90
2018-09-18T21:03:34.302Z,16.80
2018-09-18T21:06:05.847Z,16.70
2018-09-18T21:08:37.125Z,16.70
2018-09-18T21:11:08.315Z,16.70
2018-09-18T21:13:39.098Z,16.70
2018-09-18T21:16:11.463Z,16.60
2018-09-18T21:18:42.708Z,16.60
2018-09-18T21:21:14.490Z,16.50
2018-09-18T21:23:46.025Z,16.50
2018-09-18T21:26:19.182Z,16.50
2018-09-18T21:28:50.736Z,16.50
2018-09-18T21:31:22.209Z,16.50
2018-09-18T21:33:53.754Z,16.60
2018-09-18T21:36:25.282Z,16.70
2018-09-18T21:38:56.624Z,16.70
2018-09-18T21:41:27.895Z,16.70
2018-09-18T21:44:00.437Z,16.70
2018-09-18T21:46:31.612Z,16.70
2018-09-18T21:49:03.411Z,16.80
2018-09-18T21:51:34.784Z,16.80
2018-09-18T21:54:05.669Z,16.70
2018-09-18T21:56:38.155Z,16.80
2018-09-18T21:59:10.009Z,16.80
2018-09-18T22:01:40.823Z,16.80
2018-09-18T22:04:11.732Z,16.80
2018-09-18T22:06:42.846Z,16.90
2018-09-18T22:09:14.296Z,16.90
2018-09-18T22:11:45.890Z,16.90
2018-09-18T22:14:17.106Z,16.80
2018-09-18T22:16:48.265Z,16.80
2018-09-18T22:19:20.290Z,16.90
2018-09-18T22:21:52.037Z,16.80
2018-09-18T22:24:23.420Z,16.90
2018-09-18T22:26:54.402Z,16.90
2018-09-18T22:29:25.933Z,17.00
2018-09-18T22:31:56.990Z,17.10
2018-09-18T22:34:28.247Z,17.10
2018-09-18T22:36:59.871Z,17.20
2018-09-18T22:39:31.519Z,17.30
2018-09-18T22:42:03.109Z,17.40
2018-09-18T22:44:34.497Z,17.40
2018-09-18T22:47:05.234Z,17.30
2018-09-18T22:49:36.354Z,17.40
2018-09-18T22:52:08.197Z,17.50
2018-09-18T22:54:39.367Z,17.50
2018-09-18T22:57:10.420Z,17.60
2018-09-18T22:59:41.601Z,17.80
2018-09-18T23:02:12.417Z,17.80
2018-09-18T23:04:43.619Z,17.70
2018-09-18T23:07:14.988Z,17.70
2018-09-18T23:09:45.988Z,17.80
2018-09-18T23:12:16.853Z,17.80
2018-09-18T23:14:48.303Z,17.80
2018-09-18T23:17:19.731Z,17.90
2018-09-18T23:19:50.775Z,18.00
2018-09-18T23:22:22.055Z,18.00
2018-09-18T23:24:53.001Z,18.00
2018-09-18T23:27:24.194Z,17.90
2018-09-18T23:29:54.986Z,18.00
2018-09-18T23:32:26.735Z,18.10
2018-09-18T23:34:57.985Z,18.00
2018-09-18T23:37:29.279Z,18.00
2018-09-18T23:40:00.247Z,18.00
2018-09-18T23:42:32.085Z,18.00
2018-09-18T23:45:03.537Z,18.10
2018-09-18T23:47:34.595Z,18.10
2018-09-18T23:50:05.819Z,18.10
2018-09-18T23:52:36.899Z,18.10
2018-09-18T23:55:08.358Z,18.10
2018-09-18T23:57:39.096Z,18.10
